createdAt,value
2023-01-13T00:00:36.501Z,97725.53
2023-01-13T00:03:05.509Z,97730.81
2023-01-13T00:05:33.457Z,97723.88
2023-01-13T00:08:01.464Z,97709.09
2023-01-13T00:10:31.289Z,97715.16
2023-01-13T00:12:59.207Z,97708.03
2023-01-13T00:15:27.225Z,97705.03
2023-01-13T00:17:55.809Z,97699.09
2023-01-13T00:20:23.715Z,97703.97
2023-01-13T00:22:51.865Z,97699.16
2023-01-13T00:25:19.865Z,97692.72
2023-01-13T00:27:49.170Z,97690.03
2023-01-13T00:30:17.534Z,97676.09
2023-01-13T00:32:46.074Z,97675.84
2023-01-13T00:35:14.043Z,97682.75
2023-01-13T00:37:42.085Z,97676.09
2023-01-13T00:40:12.055Z,97668.25
2023-01-13T00:42:57.256Z,97676.56
2023-01-13T00:45:27.141Z,97678.44
2023-01-13T00:47:55.166Z,97681.41
2023-01-13T00:50:23.051Z,97673.84
2023-01-13T00:52:51.451Z,97669.81
2023-01-13T00:55:19.342Z,97671.16
2023-01-13T00:57:47.485Z,97663.59
2023-01-13T01:00:16.520Z,97665.78
2023-01-13T01:02:45.929Z,97660.13
2023-01-13T01:05:14.307Z,97660.34
2023-01-13T01:07:42.438Z,97655.81
2023-01-13T01:10:11.523Z,97655.25
2023-01-13T01:12:40.209Z,97655.56
2023-01-13T01:15:10.097Z,97655.00
2023-01-13T01:17:38.353Z,97653.94
2023-01-13T01:20:09.376Z,97652.56
2023-01-13T01:22:37.333Z,97644.56
2023-01-13T01:25:05.671Z,97655.00
2023-01-13T01:27:33.932Z,97647.19
2023-01-13T01:30:01.869Z,97648.56
2023-01-13T01:32:30.173Z,97640.78
2023-01-13T01:34:58.138Z,97643.81
2023-01-13T01:37:27.765Z,97639.19
2023-01-13T01:39:56.046Z,97628.50
2023-01-13T01:42:42.012Z,97627.50
2023-01-13T01:45:17.256Z,97639.31
2023-01-13T01:47:49.311Z,97642.25
2023-01-13T01:50:19.845Z,97639.03
2023-01-13T01:52:56.004Z,97629.38
2023-01-13T01:55:28.913Z,97626.72
2023-01-13T01:57:59.811Z,97625.31
2023-01-13T02:00:29.930Z,97624.03
2023-01-13T02:03:00.183Z,97623.19
2023-01-13T02:05:28.103Z,97625.91
2023-01-13T02:08:00.430Z,97626.72
2023-01-13T02:10:30.455Z,97625.91
2023-01-13T02:13:01.108Z,97623.25
2023-01-13T02:15:37.229Z,97617.06
2023-01-13T02:18:23.938Z,97617.56
2023-01-13T02:21:13.676Z,97621.31
2023-01-13T02:24:23.672Z,97613.03
2023-01-13T02:27:26.290Z,97618.41
2023-01-13T02:30:23.612Z,97608.72
2023-01-13T02:33:02.238Z,97609.50
2023-01-13T02:35:37.034Z,97616.25
2023-01-13T02:38:06.525Z,97602.78
2023-01-13T02:40:41.112Z,97600.38
2023-01-13T02:43:33.085Z,97601.44
2023-01-13T02:46:06.969Z,97603.06
2023-01-13T02:48:37.201Z,97596.59
2023-01-13T02:51:09.191Z,97595.78
2023-01-13T02:53:43.377Z,97576.09
2023-01-13T02:56:12.456Z,97586.06
2023-01-13T02:58:43.025Z,97585.03
2023-01-13T03:01:12.637Z,97595.78
2023-01-13T03:03:40.790Z,97579.34
2023-01-13T03:06:32.496Z,97577.97
2023-01-13T03:09:08.151Z,97584.94
2023-01-13T03:11:46.321Z,97573.88
2023-01-13T03:14:27.522Z,97568.25
2023-01-13T03:17:18.967Z,97568.00
2023-01-13T03:19:58.413Z,97576.88
2023-01-13T03:22:33.419Z,97579.59
2023-01-13T03:25:08.391Z,97572.03
2023-01-13T03:27:46.933Z,97566.41
2023-01-13T03:30:20.619Z,97565.56
2023-01-13T03:32:54.409Z,97576.56
2023-01-13T03:35:27.185Z,97567.22
2023-01-13T03:38:01.966Z,97553.47
2023-01-13T03:40:34.673Z,97563.69
2023-01-13T03:43:24.333Z,97553.72
2023-01-13T03:45:59.143Z,97549.75
2023-01-13T03:48:31.327Z,97552.47
2023-01-13T03:51:07.463Z,97547.31
2023-01-13T03:53:40.785Z,97542.19
2023-01-13T03:56:17.284Z,97541.91
2023-01-13T03:58:50.237Z,97539.78
2023-01-13T04:01:22.884Z,97548.66
2023-01-13T04:03:59.015Z,97547.03
2023-01-13T04:06:38.188Z,97537.06
2023-01-13T04:09:13.462Z,97540.22
2023-01-13T04:11:45.591Z,97535.72
2023-01-13T04:14:15.383Z,97534.59
2023-01-13T04:16:44.629Z,97543.69
2023-01-13T04:19:14.496Z,97534.84
2023-01-13T04:21:43.338Z,97528.66
2023-01-13T04:24:11.662Z,97525.69
2023-01-13T04:26:40.231Z,97525.69
2023-01-13T04:29:08.550Z,97524.34
2023-01-13T04:31:36.928Z,97529.16
2023-01-13T04:34:05.777Z,97531.56
2023-01-13T04:36:36.067Z,97539.09
2023-01-13T04:39:04.904Z,97538.31
2023-01-13T04:41:53.768Z,97529.16
2023-01-13T04:44:21.701Z,97523.53
2023-01-13T04:46:50.092Z,97521.66
2023-01-13T04:49:18.523Z,97524.63
2023-01-13T04:51:47.872Z,97525.97
2023-01-13T04:54:16.283Z,97515.53
2023-01-13T04:56:44.307Z,97512.56
2023-01-13T04:59:12.851Z,97506.41
2023-01-13T05:01:40.877Z,97521.72
2023-01-13T05:04:09.692Z,97508.00
2023-01-13T05:06:37.695Z,97514.47
2023-01-13T05:09:06.994Z,97511.78
2023-01-13T05:11:52.800Z,97515.31
2023-01-13T05:14:38.379Z,97509.13
2023-01-13T05:17:06.972Z,97512.59
2023-01-13T05:19:37.188Z,97521.22
2023-01-13T05:22:23.522Z,97519.88
2023-01-13T05:25:06.768Z,97530.63
2023-01-13T05:27:35.908Z,97529.88
2023-01-13T05:30:04.468Z,97526.13
2023-01-13T05:32:34.087Z,97536.88
2023-01-13T05:35:02.424Z,97531.25
2023-01-13T05:37:30.362Z,97533.94
2023-01-13T05:40:17.645Z,97531.50
2023-01-13T05:43:03.353Z,97529.34
2023-01-13T05:45:32.441Z,97532.31
2023-01-13T05:48:00.898Z,97525.03
2023-01-13T05:50:29.001Z,97525.03
2023-01-13T05:52:57.348Z,97518.31
2023-01-13T05:55:26.799Z,97512.94
2023-01-13T05:57:55.123Z,97507.00
2023-01-13T06:00:23.711Z,97520.44
2023-01-13T06:02:51.722Z,97519.41
2023-01-13T06:05:19.864Z,97517.00
2023-01-13T06:07:47.810Z,97519.66
2023-01-13T06:10:15.742Z,97525.59
2023-01-13T06:12:45.046Z,97521.28
2023-01-13T06:15:13.068Z,97532.56
2023-01-13T06:17:41.085Z,97522.34
2023-01-13T06:20:10.492Z,97520.47
2023-01-13T06:22:41.368Z,97522.06
2023-01-13T06:25:13.801Z,97518.03
2023-01-13T06:27:42.662Z,97529.34
2023-01-13T06:30:13.105Z,97533.38
2023-01-13T06:32:45.265Z,97524.53
2023-01-13T06:35:16.873Z,97518.84
2023-01-13T06:37:46.354Z,97516.41
2023-01-13T06:40:15.879Z,97524.84
2023-01-13T06:43:02.005Z,97522.13
2023-01-13T06:45:32.208Z,97515.44
2023-01-13T06:48:01.129Z,97521.06
2023-01-13T06:50:30.817Z,97517.31
2023-01-13T06:52:58.638Z,97512.97
2023-01-13T06:55:26.768Z,97520.78
2023-01-13T06:57:56.348Z,97517.53
2023-01-13T07:00:25.532Z,97528.34
2023-01-13T07:02:57.538Z,97517.53
2023-01-13T07:05:25.385Z,97506.50
2023-01-13T07:07:53.333Z,97513.53
2023-01-13T07:10:23.689Z,97518.88
2023-01-13T07:13:11.367Z,97510.28
2023-01-13T07:15:39.713Z,97507.31
2023-01-13T07:18:09.283Z,97517.25
2023-01-13T07:20:37.165Z,97518.59
2023-01-13T07:23:05.807Z,97520.72
2023-01-13T07:25:34.639Z,97512.16
2023-01-13T07:28:02.714Z,97514.28
2023-01-13T07:30:30.984Z,97507.84
2023-01-13T07:32:59.151Z,97516.16
2023-01-13T07:35:29.738Z,97521.81
2023-01-13T07:37:58.070Z,97508.91
2023-01-13T07:40:25.939Z,97521.81
2023-01-13T07:43:19.800Z,97527.75
2023-01-13T07:45:47.938Z,97522.63
2023-01-13T07:48:16.275Z,97529.63
2023-01-13T07:50:46.174Z,97511.91
2023-01-13T07:53:14.294Z,97523.22
2023-01-13T07:55:43.814Z,97525.88
2023-01-13T07:58:13.201Z,97527.22
2023-01-13T08:00:41.433Z,97523.97
2023-01-13T08:03:09.358Z,97524.84
2023-01-13T08:05:37.558Z,97521.84
2023-01-13T08:08:07.593Z,97518.09
2023-01-13T08:10:35.987Z,97522.94
2023-01-13T08:13:20.437Z,97526.16
2023-01-13T08:15:49.923Z,97530.22
2023-01-13T08:18:20.956Z,97537.44
2023-01-13T08:20:49.852Z,97529.97
2023-01-13T08:23:19.479Z,97546.06
2023-01-13T08:25:47.540Z,97539.63
2023-01-13T08:28:17.005Z,97545.28
2023-01-13T08:30:45.369Z,97546.66
2023-01-13T08:33:14.613Z,97559.59
2023-01-13T08:35:43.560Z,97568.69
2023-01-13T08:38:11.745Z,97563.03
2023-01-13T08:40:42.163Z,97570.59
2023-01-13T08:43:10.064Z,97579.66
2023-01-13T08:45:38.051Z,97590.09
2023-01-13T08:48:06.972Z,97587.66
2023-01-13T08:50:35.926Z,97592.94
2023-01-13T08:53:03.963Z,97579.97
2023-01-13T08:55:31.896Z,97589.09
2023-01-13T08:58:14.660Z,97594.41
2023-01-13T09:00:44.982Z,97616.22
2023-01-13T09:03:12.949Z,97622.66
2023-01-13T09:05:40.909Z,97627.47
2023-01-13T09:08:08.797Z,97641.00
2023-01-13T09:10:36.967Z,97662.28
2023-01-13T09:13:14.613Z,97684.91
2023-01-13T09:15:45.779Z,97707.00
2023-01-13T09:18:14.819Z,97712.88
2023-01-13T09:20:44.598Z,97717.97
2023-01-13T09:23:12.542Z,97707.03
2023-01-13T09:25:41.652Z,97719.25
2023-01-13T09:28:11.308Z,97715.69
2023-01-13T09:30:39.241Z,97716.69
2023-01-13T09:33:24.963Z,97722.78
2023-01-13T09:35:52.821Z,97722.47
2023-01-13T09:38:21.174Z,97723.34
2023-01-13T09:40:50.802Z,97723.94
2023-01-13T09:43:44.547Z,97727.91
2023-01-13T09:46:32.007Z,97727.44
2023-01-13T09:49:04.149Z,97723.94
2023-01-13T09:51:39.516Z,97729.94
2023-01-13T09:54:16.972Z,97739.03
2023-01-13T09:56:45.115Z,97739.91
2023-01-13T09:59:16.289Z,97729.97
2023-01-13T10:01:57.777Z,97720.88
2023-01-13T10:04:26.896Z,97725.50
2023-01-13T10:07:00.052Z,97725.75
2023-01-13T10:09:34.403Z,97729.00
2023-01-13T10:12:21.146Z,97716.69
2023-01-13T10:14:55.442Z,97720.44
2023-01-13T10:17:32.211Z,97724.75
2023-01-13T10:20:13.705Z,97727.94
2023-01-13T10:23:00.744Z,97721.50
2023-01-13T10:25:58.392Z,97719.63
2023-01-13T10:28:26.780Z,97727.75
2023-01-13T10:30:56.211Z,97733.31
2023-01-13T10:33:28.634Z,97739.81
2023-01-13T10:36:01.923Z,97739.72
2023-01-13T10:38:37.691Z,97727.28
2023-01-13T10:41:17.939Z,97734.53
2023-01-13T10:43:47.063Z,97735.66
2023-01-13T10:46:18.484Z,97732.88
2023-01-13T10:48:56.134Z,97743.63
2023-01-13T10:51:27.593Z,97749.56
2023-01-13T10:53:59.286Z,97747.19
2023-01-13T10:56:30.456Z,97743.38
2023-01-13T10:59:15.825Z,97756.81
2023-01-13T11:02:01.227Z,97756.06
2023-01-13T11:04:38.828Z,97746.19
2023-01-13T11:07:21.159Z,97754.81
2023-01-13T11:09:52.096Z,97742.44
2023-01-13T11:12:33.151Z,97754.00
2023-01-13T11:15:06.201Z,97759.38
2023-01-13T11:17:42.124Z,97755.25
2023-01-13T11:20:20.690Z,97759.41
2023-01-13T11:22:53.083Z,97759.00
2023-01-13T11:25:24.609Z,97760.31
2023-01-13T11:27:59.028Z,97767.00
2023-01-13T11:30:40.152Z,97764.50
2023-01-13T11:33:28.409Z,97777.94
2023-01-13T11:36:07.355Z,97775.97
2023-01-13T11:38:43.097Z,97779.78
2023-01-13T11:41:22.079Z,97783.13
2023-01-13T11:43:57.616Z,97779.38
2023-01-13T11:46:28.454Z,97781.59
2023-01-13T11:48:58.326Z,97782.88
2023-01-13T11:51:36.639Z,97784.03
2023-01-13T11:54:33.348Z,97777.75
2023-01-13T11:57:27.014Z,97778.50
2023-01-13T12:00:28.137Z,97782.88
2023-01-13T12:03:07.536Z,97778.91
2023-01-13T12:05:40.223Z,97770.53
2023-01-13T12:08:20.128Z,97777.03
2023-01-13T12:11:02.272Z,97775.66
2023-01-13T12:13:41.677Z,97763.44
2023-01-13T12:16:24.087Z,97768.34
2023-01-13T12:19:20.203Z,97762.63
2023-01-13T12:22:03.528Z,97758.59
2023-01-13T12:24:36.554Z,97747.84
2023-01-13T12:27:12.517Z,97747.22
2023-01-13T12:29:41.717Z,97758.72
2023-01-13T12:32:15.562Z,97754.50
2023-01-13T12:34:54.285Z,97765.31
2023-01-13T12:37:31.028Z,97773.31
2023-01-13T12:40:16.713Z,97785.09
2023-01-13T12:43:08.324Z,97779.59
2023-01-13T12:45:37.069Z,97779.81
2023-01-13T12:48:06.739Z,97784.94
2023-01-13T12:50:44.102Z,97791.06
2023-01-13T12:53:40.820Z,97803.91
2023-01-13T12:56:36.367Z,97808.63
2023-01-13T12:59:33.743Z,97808.53
2023-01-13T13:02:31.315Z,97814.56
2023-01-13T13:05:22.165Z,97830.19
2023-01-13T13:07:55.852Z,97826.34
2023-01-13T13:10:33.606Z,97831.22
2023-01-13T13:13:20.143Z,97826.31
2023-01-13T13:15:49.612Z,97822.56
2023-01-13T13:18:29.411Z,97838.38
2023-01-13T13:21:07.070Z,97814.44
2023-01-13T13:23:51.601Z,97822.00
2023-01-13T13:26:32.033Z,97812.47
2023-01-13T13:29:15.151Z,97799.28
2023-01-13T13:32:08.161Z,97818.00
2023-01-13T13:34:45.240Z,97820.94
2023-01-13T13:38:06.219Z,97836.25
2023-01-13T13:40:58.731Z,97846.66
2023-01-13T13:43:46.711Z,97854.22
2023-01-13T13:46:44.128Z,97840.47
2023-01-13T13:49:13.253Z,97827.13
2023-01-13T13:51:46.877Z,97845.44
2023-01-13T13:54:20.028Z,97838.94
2023-01-13T13:56:50.528Z,97831.59
2023-01-13T13:59:22.929Z,97842.00
2023-01-13T14:02:01.650Z,97848.75
2023-01-13T14:04:31.680Z,97859.50
2023-01-13T14:07:01.692Z,97846.50
2023-01-13T14:09:44.551Z,97858.06
2023-01-13T14:12:19.478Z,97871.41
2023-01-13T14:14:50.882Z,97870.53
2023-01-13T14:17:36.300Z,97876.97
2023-01-13T14:20:10.091Z,97894.47
2023-01-13T14:22:39.818Z,97886.56
2023-01-13T14:25:28.611Z,97902.94
2023-01-13T14:27:57.968Z,97922.22
2023-01-13T14:30:29.257Z,97918.78
2023-01-13T14:32:57.961Z,97932.03
2023-01-13T14:35:26.650Z,97918.13
2023-01-13T14:38:04.646Z,97919.03
2023-01-13T14:40:47.058Z,97913.41
2023-01-13T14:43:18.274Z,97911.31
2023-01-13T14:45:57.767Z,97910.25
2023-01-13T14:48:36.164Z,97910.16
2023-01-13T14:51:06.469Z,97918.84
2023-01-13T14:53:40.774Z,97920.22
2023-01-13T14:56:49.034Z,97914.09
2023-01-13T14:59:46.890Z,97921.13
2023-01-13T15:02:47.905Z,97916.25
2023-01-13T15:05:42.993Z,97924.91
2023-01-13T15:08:37.064Z,97935.97
2023-01-13T15:11:08.391Z,97954.16
2023-01-13T15:13:49.464Z,97961.63
2023-01-13T15:16:25.511Z,97960.94
2023-01-13T15:18:56.400Z,97966.94
2023-01-13T15:21:25.137Z,97959.72
2023-01-13T15:23:53.175Z,97971.72
2023-01-13T15:26:24.160Z,97968.94
2023-01-13T15:28:53.774Z,97982.69
2023-01-13T15:31:23.398Z,97987.00
2023-01-13T15:33:51.475Z,97985.59
2023-01-13T15:36:28.094Z,97989.56
2023-01-13T15:38:56.814Z,97986.28
2023-01-13T15:41:39.159Z,97998.28
2023-01-13T15:44:24.259Z,98001.78
2023-01-13T15:46:53.702Z,97998.16
2023-01-13T15:49:27.956Z,97995.34
2023-01-13T15:51:57.777Z,98005.94
2023-01-13T15:54:25.762Z,97997.00
2023-01-13T15:56:54.601Z,98003.41
2023-01-13T15:59:25.975Z,98000.38
2023-01-13T16:01:54.230Z,98003.03
2023-01-13T16:04:22.200Z,98007.47
2023-01-13T16:06:50.937Z,98003.59
2023-01-13T16:09:20.659Z,98017.91
2023-01-13T16:11:48.613Z,98034.41
2023-01-13T16:14:16.955Z,98019.66
2023-01-13T16:16:45.237Z,98035.81
2023-01-13T16:19:14.058Z,98048.63
2023-01-13T16:21:42.462Z,98032.91
2023-01-13T16:24:10.499Z,98035.97
2023-01-13T16:26:40.101Z,98032.56
2023-01-13T16:29:09.645Z,98037.13
2023-01-13T16:31:37.830Z,98033.97
2023-01-13T16:34:06.816Z,98036.63
2023-01-13T16:36:37.362Z,98046.06
2023-01-13T16:39:06.325Z,98058.56
2023-01-13T16:41:35.833Z,98054.09
2023-01-13T16:44:06.694Z,98067.72
2023-01-13T16:46:36.740Z,98071.06
2023-01-13T16:49:07.488Z,98070.13
2023-01-13T16:51:42.290Z,98061.72
2023-01-13T16:54:10.945Z,98069.97
2023-01-13T16:56:39.133Z,98081.72
2023-01-13T16:59:17.481Z,98086.50
2023-01-13T17:01:46.325Z,98082.25
2023-01-13T17:04:18.007Z,98097.06
2023-01-13T17:06:52.370Z,98097.94
2023-01-13T17:09:22.981Z,98102.50
2023-01-13T17:11:51.215Z,98107.91
2023-01-13T17:14:23.465Z,98104.66
2023-01-13T17:16:53.165Z,98111.63
2023-01-13T17:19:25.884Z,98121.16
2023-01-13T17:21:54.123Z,98115.78
2023-01-13T17:24:24.735Z,98112.91
2023-01-13T17:26:53.279Z,98125.69
2023-01-13T17:29:27.173Z,98123.00
2023-01-13T17:31:55.712Z,98123.97
2023-01-13T17:34:23.927Z,98125.91
2023-01-13T17:36:52.029Z,98129.63
2023-01-13T17:39:22.166Z,98143.38
2023-01-13T17:41:51.558Z,98153.47
2023-01-13T17:44:21.506Z,98153.84
2023-01-13T17:46:51.835Z,98148.03
2023-01-13T17:49:21.902Z,98133.19
2023-01-13T17:51:51.544Z,98143.06
2023-01-13T17:54:20.367Z,98134.00
2023-01-13T17:56:48.437Z,98145.06
2023-01-13T17:59:18.883Z,98149.38
2023-01-13T18:01:47.722Z,98143.34
2023-01-13T18:04:19.368Z,98143.88
2023-01-13T18:06:48.718Z,98145.72
2023-01-13T18:09:17.326Z,98149.81
2023-01-13T18:11:47.215Z,98161.34
2023-01-13T18:14:15.995Z,98173.25
2023-01-13T18:16:44.423Z,98166.69
2023-01-13T18:19:29.919Z,98169.97
2023-01-13T18:22:16.743Z,98180.81
2023-01-13T18:25:02.682Z,98180.66
2023-01-13T18:27:34.073Z,98187.44
2023-01-13T18:30:03.723Z,98187.44
2023-01-13T18:32:33.763Z,98197.53
2023-01-13T18:35:06.644Z,98209.06
2023-01-13T18:37:38.795Z,98202.09
2023-01-13T18:40:07.943Z,98207.44
2023-01-13T18:42:54.835Z,98209.97
2023-01-13T18:45:25.583Z,98215.91
2023-01-13T18:47:55.244Z,98223.28
2023-01-13T18:50:24.505Z,98224.69
2023-01-13T18:52:56.191Z,98232.19
2023-01-13T18:55:28.611Z,98240.00
2023-01-13T18:57:58.403Z,98242.69
2023-01-13T19:00:28.269Z,98255.84
2023-01-13T19:05:36.099Z,98253.75
2023-01-13T19:08:11.052Z,98249.31
2023-01-13T19:10:42.637Z,98247.00
2023-01-13T19:13:11.855Z,98245.38
2023-01-13T19:15:40.109Z,98251.31
2023-01-13T19:18:09.560Z,98257.03
2023-01-13T19:20:39.668Z,98258.06
2023-01-13T19:23:12.017Z,98271.69
2023-01-13T19:25:43.811Z,98272.50
2023-01-13T19:28:13.830Z,98283.38
2023-01-13T19:30:42.351Z,98279.50
2023-01-13T19:33:10.804Z,98273.78
2023-01-13T19:35:39.375Z,98281.13
2023-01-13T19:38:09.596Z,98282.25
2023-01-13T19:40:38.523Z,98290.28
2023-01-13T19:43:24.335Z,98281.06
2023-01-13T19:45:58.171Z,98296.28
2023-01-13T19:48:31.698Z,98302.47
2023-01-13T19:51:00.511Z,98309.25
2023-01-13T19:53:33.211Z,98301.44
2023-01-13T19:56:07.083Z,98310.06
2023-01-13T19:58:41.309Z,98322.84
2023-01-13T20:01:12.310Z,98326.56
2023-01-13T20:03:44.961Z,98319.19
2023-01-13T20:06:14.491Z,98330.72
2023-01-13T20:08:49.467Z,98338.16
2023-01-13T20:11:31.685Z,98337.16
2023-01-13T20:14:00.751Z,98337.38
2023-01-13T20:16:34.976Z,98340.22
2023-01-13T20:19:23.799Z,98335.38
2023-01-13T20:21:54.453Z,98351.22
2023-01-13T20:24:30.950Z,98348.97
2023-01-13T20:27:01.243Z,98348.38
2023-01-13T20:29:37.077Z,98359.50
2023-01-13T20:32:09.656Z,98352.09
2023-01-13T20:34:39.770Z,98353.56
2023-01-13T20:37:10.145Z,98345.59
2023-01-13T20:39:43.210Z,98363.28
2023-01-13T20:42:31.726Z,98377.69
2023-01-13T20:45:07.833Z,98358.34
2023-01-13T20:47:36.596Z,98359.78
2023-01-13T20:50:05.861Z,98361.91
2023-01-13T20:52:39.925Z,98363.66
2023-01-13T20:55:19.583Z,98373.63
2023-01-13T20:58:02.032Z,98367.91
2023-01-13T21:00:34.446Z,98365.66
2023-01-13T21:03:03.719Z,98367.53
2023-01-13T21:05:33.702Z,98359.41
2023-01-13T21:08:02.473Z,98351.38
2023-01-13T21:10:32.197Z,98361.50
2023-01-13T21:13:24.824Z,98366.69
2023-01-13T21:15:55.726Z,98370.19
2023-01-13T21:18:42.770Z,98367.50
2023-01-13T21:21:15.618Z,98367.13
2023-01-13T21:23:49.132Z,98364.44
2023-01-13T21:26:22.161Z,98363.84
2023-01-13T21:28:51.072Z,98367.13
2023-01-13T21:31:19.347Z,98363.63
2023-01-13T21:33:48.438Z,98371.03
2023-01-13T21:36:18.544Z,98386.03
2023-01-13T21:38:46.515Z,98386.69
2023-01-13T21:41:35.345Z,98384.22
2023-01-13T21:44:36.662Z,98393.25
2023-01-13T21:47:37.224Z,98393.41
2023-01-13T21:50:10.633Z,98400.03
2023-01-13T21:52:39.140Z,98397.34
2023-01-13T21:55:25.252Z,98389.53
2023-01-13T21:57:56.085Z,98401.63
2023-01-13T22:00:27.460Z,98398.97
2023-01-13T22:03:00.160Z,98399.81
2023-01-13T22:05:30.170Z,98415.25
2023-01-13T22:07:58.284Z,98416.28
2023-01-13T22:10:28.240Z,98428.19
2023-01-13T22:12:57.580Z,98425.72
2023-01-13T22:15:30.701Z,98427.53
2023-01-13T22:17:59.986Z,98439.91
2023-01-13T22:20:28.343Z,98440.50
2023-01-13T22:22:56.671Z,98431.88
2023-01-13T22:25:24.536Z,98444.44
2023-01-13T22:27:55.961Z,98432.03
2023-01-13T22:30:25.259Z,98443.16
2023-01-13T22:32:54.571Z,98439.63
2023-01-13T22:35:22.602Z,98451.19
2023-01-13T22:37:50.969Z,98456.53
2023-01-13T22:40:19.003Z,98441.72
2023-01-13T22:42:47.141Z,98449.75
2023-01-13T22:45:16.441Z,98449.94
2023-01-13T22:47:44.359Z,98457.97
2023-01-13T22:50:13.816Z,98437.22
2023-01-13T22:52:41.865Z,98447.47
2023-01-13T22:55:10.077Z,98447.88
2023-01-13T22:57:47.224Z,98444.75
2023-01-13T23:00:19.468Z,98437.38
2023-01-13T23:02:47.570Z,98446.84
2023-01-13T23:05:17.533Z,98428.97
2023-01-13T23:07:45.950Z,98433.72
2023-01-13T23:10:14.171Z,98438.44
2023-01-13T23:12:42.220Z,98436.19
2023-01-13T23:15:11.185Z,98432.72
2023-01-13T23:17:39.099Z,98445.50
2023-01-13T23:20:07.651Z,98448.19
2023-01-13T23:22:39.224Z,98456.03
2023-01-13T23:25:08.239Z,98447.81
2023-01-13T23:27:36.435Z,98456.47
2023-01-13T23:30:05.946Z,98446.19
2023-01-13T23:32:35.638Z,98446.59
2023-01-13T23:35:03.684Z,98448.25
2023-01-13T23:37:32.610Z,98446.81
2023-01-13T23:40:02.459Z,98451.75
2023-01-13T23:42:30.406Z,98464.91
2023-01-13T23:44:59.091Z,98464.50
2023-01-13T23:47:27.057Z,98451.75
2023-01-13T23:49:55.004Z,98464.91
2023-01-13T23:52:23.018Z,98455.88
2023-01-13T23:54:50.877Z,98455.22
2023-01-13T23:57:20.153Z,98462.00
2023-01-13T23:59:48.111Z,98468.19
